sensor_id;sensor_type;location;lat;lon;timestamp;P1;durP1;ratioP1;P2;durP2;ratioP2
16442;SDS011;8331;51.654;14.376;2023-06-05T00:01:02;2.87;;;2.67;;
16442;SDS011;8331;51.654;14.376;2023-06-05T00:03:29;3.37;;;2.90;;
16442;SDS011;8331;51.654;14.376;2023-06-05T00:05:56;3.17;;;2.87;;
16442;SDS011;8331;51.654;14.376;2023-06-05T00:08:23;3.13;;;2.90;;
16442;SDS011;8331;51.654;14.376;2023-06-05T00:10:49;3.40;;;2.87;;
16442;SDS011;8331;51.654;14.376;2023-06-05T00:13:16;3.20;;;2.90;;
16442;SDS011;8331;51.654;14.376;2023-06-05T00:15:43;3.23;;;2.93;;
16442;SDS011;8331;51.654;14.376;2023-06-05T00:18:09;3.07;;;2.87;;
16442;SDS011;8331;51.654;14.376;2023-06-05T00:20:36;3.17;;;2.97;;
16442;SDS011;8331;51.654;14.376;2023-06-05T00:23:03;3.40;;;3.10;;
16442;SDS011;8331;51.654;14.376;2023-06-05T00:25:30;2.77;;;2.57;;
16442;SDS011;8331;51.654;14.376;2023-06-05T00:27:56;3.45;;;3.15;;
16442;SDS011;8331;51.654;14.376;2023-06-05T00:30:23;3.10;;;2.90;;
16442;SDS011;8331;51.654;14.376;2023-06-05T00:32:50;3.20;;;3.00;;
16442;SDS011;8331;51.654;14.376;2023-06-05T00:35:16;3.00;;;2.60;;
16442;SDS011;8331;51.654;14.376;2023-06-05T00:37:43;3.10;;;2.80;;
16442;SDS011;8331;51.654;14.376;2023-06-05T00:40:13;2.73;;;2.60;;
16442;SDS011;8331;51.654;14.376;2023-06-05T00:42:40;3.23;;;2.93;;
16442;SDS011;8331;51.654;14.376;2023-06-05T00:45:07;3.20;;;3.00;;
16442;SDS011;8331;51.654;14.376;2023-06-05T00:47:34;3.07;;;2.87;;
16442;SDS011;8331;51.654;14.376;2023-06-05T00:50:01;3.10;;;2.90;;
16442;SDS011;8331;51.654;14.376;2023-06-05T00:52:28;3.40;;;3.17;;
16442;SDS011;8331;51.654;14.376;2023-06-05T00:54:55;3.70;;;3.40;;
16442;SDS011;8331;51.654;14.376;2023-06-05T00:57:21;3.10;;;2.90;;
16442;SDS011;8331;51.654;14.376;2023-06-05T00:59:50;3.73;;;3.07;;
16442;SDS011;8331;51.654;14.376;2023-06-05T01:02:19;3.80;;;3.43;;
16442;SDS011;8331;51.654;14.376;2023-06-05T01:04:47;3.53;;;3.33;;
16442;SDS011;8331;51.654;14.376;2023-06-05T01:07:14;3.13;;;2.93;;
16442;SDS011;8331;51.654;14.376;2023-06-05T01:09:42;3.60;;;3.30;;
16442;SDS011;8331;51.654;14.376;2023-06-05T01:12:17;3.20;;;3.00;;
16442;SDS011;8331;51.654;14.376;2023-06-05T01:14:48;4.73;;;2.97;;
16442;SDS011;8331;51.654;14.376;2023-06-05T01:17:16;3.37;;;3.10;;
16442;SDS011;8331;51.654;14.376;2023-06-05T01:19:45;16.67;;;4.07;;
16442;SDS011;8331;51.654;14.376;2023-06-05T01:22:12;89.73;;;10.23;;
16442;SDS011;8331;51.654;14.376;2023-06-05T01:24:39;229.93;;;15.27;;
16442;SDS011;8331;51.654;14.376;2023-06-05T01:32:11;66.33;;;7.70;;
16442;SDS011;8331;51.654;14.376;2023-06-05T01:34:43;36.57;;;5.53;;
16442;SDS011;8331;51.654;14.376;2023-06-05T01:37:10;13.47;;;4.00;;
16442;SDS011;8331;51.654;14.376;2023-06-05T01:39:58;5.67;;;3.33;;
16442;SDS011;8331;51.654;14.376;2023-06-05T01:42:43;4.80;;;3.17;;
16442;SDS011;8331;51.654;14.376;2023-06-05T01:45:27;4.30;;;3.07;;
16442;SDS011;8331;51.654;14.376;2023-06-05T01:48:12;3.57;;;3.27;;
16442;SDS011;8331;51.654;14.376;2023-06-05T01:50:57;2.97;;;2.77;;
16442;SDS011;8331;51.654;14.376;2023-06-05T01:53:25;4.30;;;3.27;;
16442;SDS011;8331;51.654;14.376;2023-06-05T01:55:52;5.07;;;3.40;;
16442;SDS011;8331;51.654;14.376;2023-06-05T01:58:24;3.90;;;3.50;;
16442;SDS011;8331;51.654;14.376;2023-06-05T02:00:51;4.20;;;2.73;;
16442;SDS011;8331;51.654;14.376;2023-06-05T02:03:19;3.33;;;3.13;;
16442;SDS011;8331;51.654;14.376;2023-06-05T02:05:46;3.27;;;3.07;;
16442;SDS011;8331;51.654;14.376;2023-06-05T02:08:13;5.17;;;3.10;;
16442;SDS011;8331;51.654;14.376;2023-06-05T02:10:45;4.20;;;2.80;;
16442;SDS011;8331;51.654;14.376;2023-06-05T02:13:13;3.47;;;3.27;;
16442;SDS011;8331;51.654;14.376;2023-06-05T02:15:41;3.63;;;3.33;;
16442;SDS011;8331;51.654;14.376;2023-06-05T02:18:11;3.67;;;3.37;;
16442;SDS011;8331;51.654;14.376;2023-06-05T02:20:40;3.53;;;3.23;;
16442;SDS011;8331;51.654;14.376;2023-06-05T02:23:09;3.43;;;3.13;;
16442;SDS011;8331;51.654;14.376;2023-06-05T02:25:36;2.90;;;2.70;;
16442;SDS011;8331;51.654;14.376;2023-06-05T02:28:03;3.60;;;3.30;;
16442;SDS011;8331;51.654;14.376;2023-06-05T02:30:29;6.33;;;3.27;;
16442;SDS011;8331;51.654;14.376;2023-06-05T02:32:56;3.43;;;3.13;;
16442;SDS011;8331;51.654;14.376;2023-06-05T02:35:27;3.53;;;3.33;;
16442;SDS011;8331;51.654;14.376;2023-06-05T02:37:56;4.17;;;3.33;;
16442;SDS011;8331;51.654;14.376;2023-06-05T02:40:23;3.50;;;3.30;;
16442;SDS011;8331;51.654;14.376;2023-06-05T02:42:49;4.17;;;3.50;;
16442;SDS011;8331;51.654;14.376;2023-06-05T02:45:16;3.60;;;3.37;;
16442;SDS011;8331;51.654;14.376;2023-06-05T02:47:43;3.40;;;3.10;;
16442;SDS011;8331;51.654;14.376;2023-06-05T02:50:10;4.53;;;3.47;;
16442;SDS011;8331;51.654;14.376;2023-06-05T02:52:41;3.93;;;3.53;;
16442;SDS011;8331;51.654;14.376;2023-06-05T02:55:13;3.60;;;3.30;;
16442;SDS011;8331;51.654;14.376;2023-06-05T02:57:42;5.60;;;3.60;;
16442;SDS011;8331;51.654;14.376;2023-06-05T03:00:14;3.63;;;3.30;;
16442;SDS011;8331;51.654;14.376;2023-06-05T03:02:47;4.03;;;3.73;;
16442;SDS011;8331;51.654;14.376;2023-06-05T03:05:21;3.80;;;3.37;;
16442;SDS011;8331;51.654;14.376;2023-06-05T03:07:56;4.23;;;3.40;;
16442;SDS011;8331;51.654;14.376;2023-06-05T03:10:23;3.67;;;3.37;;
16442;SDS011;8331;51.654;14.376;2023-06-05T03:12:51;5.00;;;3.23;;
16442;SDS011;8331;51.654;14.376;2023-06-05T03:15:17;4.00;;;3.43;;
16442;SDS011;8331;51.654;14.376;2023-06-05T03:17:47;4.27;;;3.87;;
16442;SDS011;8331;51.654;14.376;2023-06-05T03:20:17;4.33;;;3.80;;
16442;SDS011;8331;51.654;14.376;2023-06-05T03:22:44;4.10;;;3.70;;
16442;SDS011;8331;51.654;14.376;2023-06-05T03:25:11;3.83;;;3.53;;
16442;SDS011;8331;51.654;14.376;2023-06-05T03:27:40;7.80;;;3.50;;
16442;SDS011;8331;51.654;14.376;2023-06-05T03:30:09;3.90;;;3.60;;
16442;SDS011;8331;51.654;14.376;2023-06-05T03:32:42;3.90;;;3.50;;
16442;SDS011;8331;51.654;14.376;2023-06-05T03:35:09;3.43;;;3.20;;
16442;SDS011;8331;51.654;14.376;2023-06-05T03:37:38;4.33;;;3.60;;
16442;SDS011;8331;51.654;14.376;2023-06-05T03:40:05;4.67;;;3.40;;
16442;SDS011;8331;51.654;14.376;2023-06-05T03:42:34;4.03;;;3.73;;
16442;SDS011;8331;51.654;14.376;2023-06-05T03:45:02;3.83;;;3.13;;
16442;SDS011;8331;51.654;14.376;2023-06-05T03:47:28;3.70;;;3.30;;
16442;SDS011;8331;51.654;14.376;2023-06-05T03:49:56;3.60;;;3.37;;
16442;SDS011;8331;51.654;14.376;2023-06-05T03:52:24;5.17;;;3.67;;
16442;SDS011;8331;51.654;14.376;2023-06-05T03:54:51;4.20;;;3.80;;
16442;SDS011;8331;51.654;14.376;2023-06-05T03:57:22;4.27;;;3.17;;
16442;SDS011;8331;51.654;14.376;2023-06-05T03:59:50;4.13;;;3.73;;
16442;SDS011;8331;51.654;14.376;2023-06-05T04:02:17;4.63;;;3.43;;
16442;SDS011;8331;51.654;14.376;2023-06-05T04:04:44;3.43;;;3.17;;
16442;SDS011;8331;51.654;14.376;2023-06-05T04:07:11;4.40;;;3.40;;
16442;SDS011;8331;51.654;14.376;2023-06-05T04:09:39;3.50;;;3.13;;
16442;SDS011;8331;51.654;14.376;2023-06-05T04:12:05;3.60;;;3.37;;
16442;SDS011;8331;51.654;14.376;2023-06-05T04:14:34;3.67;;;3.30;;
16442;SDS011;8331;51.654;14.376;2023-06-05T04:17:03;3.50;;;3.17;;
16442;SDS011;8331;51.654;14.376;2023-06-05T04:19:30;3.77;;;3.47;;
16442;SDS011;8331;51.654;14.376;2023-06-05T04:21:57;3.77;;;3.43;;
16442;SDS011;8331;51.654;14.376;2023-06-05T04:24:24;3.40;;;3.20;;
16442;SDS011;8331;51.654;14.376;2023-06-05T04:26:51;4.23;;;3.80;;
16442;SDS011;8331;51.654;14.376;2023-06-05T04:29:18;3.37;;;3.07;;
16442;SDS011;8331;51.654;14.376;2023-06-05T04:31:47;3.40;;;3.20;;
16442;SDS011;8331;51.654;14.376;2023-06-05T04:34:15;7.13;;;3.60;;
16442;SDS011;8331;51.654;14.376;2023-06-05T04:36:45;3.87;;;3.57;;
16442;SDS011;8331;51.654;14.376;2023-06-05T04:39:13;4.20;;;3.17;;
16442;SDS011;8331;51.654;14.376;2023-06-05T04:41:44;3.37;;;3.17;;
16442;SDS011;8331;51.654;14.376;2023-06-05T04:44:23;3.67;;;3.37;;
16442;SDS011;8331;51.654;14.376;2023-06-05T04:46:50;3.60;;;3.40;;
16442;SDS011;8331;51.654;14.376;2023-06-05T04:49:18;3.60;;;3.30;;
16442;SDS011;8331;51.654;14.376;2023-06-05T04:51:46;3.73;;;3.43;;
16442;SDS011;8331;51.654;14.376;2023-06-05T04:54:13;4.00;;;3.70;;
16442;SDS011;8331;51.654;14.376;2023-06-05T04:56:41;3.87;;;3.53;;
16442;SDS011;8331;51.654;14.376;2023-06-05T04:59:09;3.63;;;3.30;;
16442;SDS011;8331;51.654;14.376;2023-06-05T05:01:36;3.77;;;3.40;;
16442;SDS011;8331;51.654;14.376;2023-06-05T05:04:03;4.00;;;3.60;;
16442;SDS011;8331;51.654;14.376;2023-06-05T05:06:31;3.37;;;3.07;;
16442;SDS011;8331;51.654;14.376;2023-06-05T05:08:58;3.50;;;3.30;;
16442;SDS011;8331;51.654;14.376;2023-06-05T05:11:27;4.97;;;3.70;;
16442;SDS011;8331;51.654;14.376;2023-06-05T05:13:54;3.53;;;3.23;;
16442;SDS011;8331;51.654;14.376;2023-06-05T05:16:21;3.67;;;3.00;;
16442;SDS011;8331;51.654;14.376;2023-06-05T05:18:49;3.30;;;3.00;;
16442;SDS011;8331;51.654;14.376;2023-06-05T05:21:15;3.53;;;3.27;;
16442;SDS011;8331;51.654;14.376;2023-06-05T05:23:44;4.00;;;3.30;;
16442;SDS011;8331;51.654;14.376;2023-06-05T05:26:11;3.90;;;3.40;;
16442;SDS011;8331;51.654;14.376;2023-06-05T05:28:38;3.53;;;3.23;;
16442;SDS011;8331;51.654;14.376;2023-06-05T05:31:04;3.30;;;3.00;;
16442;SDS011;8331;51.654;14.376;2023-06-05T05:33:34;3.80;;;3.50;;
16442;SDS011;8331;51.654;14.376;2023-06-05T05:36:01;3.93;;;3.47;;
16442;SDS011;8331;51.654;14.376;2023-06-05T05:38:29;4.03;;;3.40;;
16442;SDS011;8331;51.654;14.376;2023-06-05T05:40:56;3.47;;;3.17;;
16442;SDS011;8331;51.654;14.376;2023-06-05T05:43:22;3.13;;;2.93;;
16442;SDS011;8331;51.654;14.376;2023-06-05T05:45:49;4.87;;;3.20;;
16442;SDS011;8331;51.654;14.376;2023-06-05T05:48:16;4.07;;;3.77;;
16442;SDS011;8331;51.654;14.376;2023-06-05T05:50:43;3.70;;;3.40;;
16442;SDS011;8331;51.654;14.376;2023-06-05T05:53:10;3.63;;;3.33;;
16442;SDS011;8331;51.654;14.376;2023-06-05T05:55:36;4.13;;;3.30;;
16442;SDS011;8331;51.654;14.376;2023-06-05T05:58:03;3.50;;;3.20;;
16442;SDS011;8331;51.654;14.376;2023-06-05T06:00:30;3.37;;;3.10;;
16442;SDS011;8331;51.654;14.376;2023-06-05T06:02:56;7.33;;;3.50;;
16442;SDS011;8331;51.654;14.376;2023-06-05T06:05:23;3.50;;;3.20;;
16442;SDS011;8331;51.654;14.376;2023-06-05T06:07:50;5.07;;;3.20;;
16442;SDS011;8331;51.654;14.376;2023-06-05T06:10:17;3.17;;;2.90;;
16442;SDS011;8331;51.654;14.376;2023-06-05T06:12:44;3.47;;;3.20;;
16442;SDS011;8331;51.654;14.376;2023-06-05T06:15:11;3.80;;;3.23;;
16442;SDS011;8331;51.654;14.376;2023-06-05T06:17:38;3.37;;;3.07;;
16442;SDS011;8331;51.654;14.376;2023-06-05T06:20:06;3.60;;;3.20;;
16442;SDS011;8331;51.654;14.376;2023-06-05T06:22:32;3.17;;;2.87;;
16442;SDS011;8331;51.654;14.376;2023-06-05T06:24:59;4.63;;;3.00;;
16442;SDS011;8331;51.654;14.376;2023-06-05T06:27:27;3.47;;;3.27;;
16442;SDS011;8331;51.654;14.376;2023-06-05T06:30:00;3.40;;;3.10;;
16442;SDS011;8331;51.654;14.376;2023-06-05T06:32:27;3.60;;;3.10;;
16442;SDS011;8331;51.654;14.376;2023-06-05T06:34:55;4.93;;;2.97;;
16442;SDS011;8331;51.654;14.376;2023-06-05T06:37:21;4.93;;;3.13;;
16442;SDS011;8331;51.654;14.376;2023-06-05T06:39:49;7.37;;;3.37;;
16442;SDS011;8331;51.654;14.376;2023-06-05T06:42:16;3.20;;;3.00;;
16442;SDS011;8331;51.654;14.376;2023-06-05T06:44:52;3.50;;;2.93;;
16442;SDS011;8331;51.654;14.376;2023-06-05T06:47:22;3.53;;;3.00;;
16442;SDS011;8331;51.654;14.376;2023-06-05T06:49:49;3.90;;;2.87;;
16442;SDS011;8331;51.654;14.376;2023-06-05T06:52:16;4.30;;;3.10;;
16442;SDS011;8331;51.654;14.376;2023-06-05T06:54:44;13.67;;;3.43;;
16442;SDS011;8331;51.654;14.376;2023-06-05T06:57:11;2.90;;;2.70;;
16442;SDS011;8331;51.654;14.376;2023-06-05T06:59:38;6.20;;;3.13;;
16442;SDS011;8331;51.654;14.376;2023-06-05T07:04:37;5.43;;;3.10;;
16442;SDS011;8331;51.654;14.376;2023-06-05T07:07:04;3.10;;;2.80;;
16442;SDS011;8331;51.654;14.376;2023-06-05T07:09:31;5.07;;;2.60;;
16442;SDS011;8331;51.654;14.376;2023-06-05T07:11:58;3.20;;;3.00;;
16442;SDS011;8331;51.654;14.376;2023-06-05T07:14:31;2.50;;;2.30;;
16442;SDS011;8331;51.654;14.376;2023-06-05T07:16:59;3.00;;;2.80;;
16442;SDS011;8331;51.654;14.376;2023-06-05T07:19:30;4.03;;;2.70;;
16442;SDS011;8331;51.654;14.376;2023-06-05T07:21:57;4.43;;;3.03;;
16442;SDS011;8331;51.654;14.376;2023-06-05T07:24:24;5.67;;;2.60;;
16442;SDS011;8331;51.654;14.376;2023-06-05T07:26:55;2.80;;;2.60;;
16442;SDS011;8331;51.654;14.376;2023-06-05T07:29:22;3.13;;;2.23;;
16442;SDS011;8331;51.654;14.376;2023-06-05T07:31:53;2.80;;;2.60;;
16442;SDS011;8331;51.654;14.376;2023-06-05T07:34:20;7.27;;;2.60;;
16442;SDS011;8331;51.654;14.376;2023-06-05T07:36:47;2.93;;;2.40;;
16442;SDS011;8331;51.654;14.376;2023-06-05T07:39:15;2.80;;;2.60;;
16442;SDS011;8331;51.654;14.376;2023-06-05T07:41:42;5.63;;;2.90;;
16442;SDS011;8331;51.654;14.376;2023-06-05T07:44:09;2.50;;;2.30;;
16442;SDS011;8331;51.654;14.376;2023-06-05T07:46:36;5.03;;;2.37;;
16442;SDS011;8331;51.654;14.376;2023-06-05T07:49:03;3.73;;;2.50;;
16442;SDS011;8331;51.654;14.376;2023-06-05T07:51:30;4.53;;;2.60;;
16442;SDS011;8331;51.654;14.376;2023-06-05T07:53:59;3.30;;;2.40;;
16442;SDS011;8331;51.654;14.376;2023-06-05T07:56:27;2.30;;;2.10;;
16442;SDS011;8331;51.654;14.376;2023-06-05T07:58:54;2.70;;;2.50;;
16442;SDS011;8331;51.654;14.376;2023-06-05T08:01:21;3.23;;;2.17;;
16442;SDS011;8331;51.654;14.376;2023-06-05T08:03:48;3.00;;;2.10;;
16442;SDS011;8331;51.654;14.376;2023-06-05T08:06:15;4.37;;;2.30;;
16442;SDS011;8331;51.654;14.376;2023-06-05T08:08:41;2.00;;;1.90;;
16442;SDS011;8331;51.654;14.376;2023-06-05T08:11:09;3.03;;;1.93;;
16442;SDS011;8331;51.654;14.376;2023-06-05T08:13:36;19.23;;;3.00;;
16442;SDS011;8331;51.654;14.376;2023-06-05T08:16:04;9.20;;;2.17;;
16442;SDS011;8331;51.654;14.376;2023-06-05T08:18:30;6.13;;;1.97;;
16442;SDS011;8331;51.654;14.376;2023-06-05T08:20:57;5.63;;;1.73;;
16442;SDS011;8331;51.654;14.376;2023-06-05T08:23:24;3.77;;;1.90;;
16442;SDS011;8331;51.654;14.376;2023-06-05T08:25:50;3.03;;;1.60;;
16442;SDS011;8331;51.654;14.376;2023-06-05T08:28:17;3.97;;;1.63;;
16442;SDS011;8331;51.654;14.376;2023-06-05T08:30:44;1.70;;;1.60;;
16442;SDS011;8331;51.654;14.376;2023-06-05T08:33:10;2.40;;;1.90;;
16442;SDS011;8331;51.654;14.376;2023-06-05T08:35:41;3.47;;;2.20;;
16442;SDS011;8331;51.654;14.376;2023-06-05T08:38:08;2.20;;;2.00;;
16442;SDS011;8331;51.654;14.376;2023-06-05T08:40:34;4.40;;;1.60;;
16442;SDS011;8331;51.654;14.376;2023-06-05T08:43:03;2.57;;;1.80;;
16442;SDS011;8331;51.654;14.376;2023-06-05T08:45:30;2.67;;;1.80;;
16442;SDS011;8331;51.654;14.376;2023-06-05T08:47:58;2.00;;;1.80;;
16442;SDS011;8331;51.654;14.376;2023-06-05T08:50:26;2.30;;;1.60;;
16442;SDS011;8331;51.654;14.376;2023-06-05T08:52:54;3.77;;;1.83;;
16442;SDS011;8331;51.654;14.376;2023-06-05T08:55:23;2.60;;;2.10;;
16442;SDS011;8331;51.654;14.376;2023-06-05T08:57:49;3.70;;;2.10;;
16442;SDS011;8331;51.654;14.376;2023-06-05T09:00:16;3.13;;;1.90;;
16442;SDS011;8331;51.654;14.376;2023-06-05T09:02:43;2.23;;;2.10;;
16442;SDS011;8331;51.654;14.376;2023-06-05T09:05:10;3.03;;;1.80;;
16442;SDS011;8331;51.654;14.376;2023-06-05T09:07:38;1.90;;;1.70;;
16442;SDS011;8331;51.654;14.376;2023-06-05T09:10:05;2.03;;;1.67;;
16442;SDS011;8331;51.654;14.376;2023-06-05T09:12:32;2.77;;;1.87;;
16442;SDS011;8331;51.654;14.376;2023-06-05T09:14:58;2.67;;;1.90;;
16442;SDS011;8331;51.654;14.376;2023-06-05T09:17:26;2.20;;;1.60;;
16442;SDS011;8331;51.654;14.376;2023-06-05T09:19:52;2.23;;;1.77;;
16442;SDS011;8331;51.654;14.376;2023-06-05T09:22:32;2.60;;;1.95;;
16442;SDS011;8331;51.654;14.376;2023-06-05T09:25:00;2.53;;;1.87;;
16442;SDS011;8331;51.654;14.376;2023-06-05T09:27:27;1.90;;;1.80;;
16442;SDS011;8331;51.654;14.376;2023-06-05T09:30:01;2.33;;;1.77;;
16442;SDS011;8331;51.654;14.376;2023-06-05T09:32:28;2.33;;;2.13;;
16442;SDS011;8331;51.654;14.376;2023-06-05T09:34:56;2.20;;;1.90;;
16442;SDS011;8331;51.654;14.376;2023-06-05T09:37:33;2.47;;;2.07;;
16442;SDS011;8331;51.654;14.376;2023-06-05T09:40:02;2.17;;;1.90;;
16442;SDS011;8331;51.654;14.376;2023-06-05T09:42:35;2.17;;;1.97;;
16442;SDS011;8331;51.654;14.376;2023-06-05T09:45:02;3.33;;;2.10;;
16442;SDS011;8331;51.654;14.376;2023-06-05T09:47:31;2.30;;;2.10;;
16442;SDS011;8331;51.654;14.376;2023-06-05T09:50:21;1.90;;;1.80;;
16442;SDS011;8331;51.654;14.376;2023-06-05T09:52:49;1.80;;;1.70;;
16442;SDS011;8331;51.654;14.376;2023-06-05T09:55:16;2.57;;;1.80;;
16442;SDS011;8331;51.654;14.376;2023-06-05T09:57:44;2.50;;;2.00;;
16442;SDS011;8331;51.654;14.376;2023-06-05T10:00:12;3.20;;;2.03;;
16442;SDS011;8331;51.654;14.376;2023-06-05T10:02:41;2.22;;;2.03;;
16442;SDS011;8331;51.654;14.376;2023-06-05T10:05:08;3.97;;;2.20;;
16442;SDS011;8331;51.654;14.376;2023-06-05T10:07:36;3.60;;;1.90;;
16442;SDS011;8331;51.654;14.376;2023-06-05T10:10:03;3.03;;;2.00;;
16442;SDS011;8331;51.654;14.376;2023-06-05T10:12:30;2.00;;;1.90;;
16442;SDS011;8331;51.654;14.376;2023-06-05T10:14:57;2.53;;;2.10;;
16442;SDS011;8331;51.654;14.376;2023-06-05T10:17:24;2.20;;;2.00;;
16442;SDS011;8331;51.654;14.376;2023-06-05T10:19:52;4.90;;;2.00;;
16442;SDS011;8331;51.654;14.376;2023-06-05T10:22:19;2.37;;;2.03;;
16442;SDS011;8331;51.654;14.376;2023-06-05T10:24:56;2.10;;;2.00;;
16442;SDS011;8331;51.654;14.376;2023-06-05T10:27:37;2.93;;;1.80;;
16442;SDS011;8331;51.654;14.376;2023-06-05T10:35:41;6.40;;;2.00;;
16442;SDS011;8331;51.654;14.376;2023-06-05T10:38:22;2.20;;;2.10;;
16442;SDS011;8331;51.654;14.376;2023-06-05T10:40:53;2.13;;;1.77;;
16442;SDS011;8331;51.654;14.376;2023-06-05T10:43:33;3.33;;;2.33;;
16442;SDS011;8331;51.654;14.376;2023-06-05T10:46:01;3.43;;;2.20;;
16442;SDS011;8331;51.654;14.376;2023-06-05T10:59:18;3.30;;;2.10;;
16442;SDS011;8331;51.654;14.376;2023-06-05T11:07:20;3.80;;;2.40;;
16442;SDS011;8331;51.654;14.376;2023-06-05T11:15:09;2.40;;;2.20;;
16442;SDS011;8331;51.654;14.376;2023-06-05T11:17:43;3.23;;;2.50;;
16442;SDS011;8331;51.654;14.376;2023-06-05T11:28:00;2.43;;;2.30;;
16442;SDS011;8331;51.654;14.376;2023-06-05T11:30:32;2.70;;;2.50;;
16442;SDS011;8331;51.654;14.376;2023-06-05T11:33:09;2.47;;;2.27;;
16442;SDS011;8331;51.654;14.376;2023-06-05T11:35:36;2.93;;;2.60;;
16442;SDS011;8331;51.654;14.376;2023-06-05T11:38:09;2.70;;;2.50;;
16442;SDS011;8331;51.654;14.376;2023-06-05T11:40:36;2.73;;;2.27;;
16442;SDS011;8331;51.654;14.376;2023-06-05T11:43:03;3.00;;;2.20;;
16442;SDS011;8331;51.654;14.376;2023-06-05T11:45:33;2.63;;;2.23;;
16442;SDS011;8331;51.654;14.376;2023-06-05T11:50:32;2.33;;;2.13;;
16442;SDS011;8331;51.654;14.376;2023-06-05T11:53:08;2.40;;;2.20;;
16442;SDS011;8331;51.654;14.376;2023-06-05T11:55:34;2.70;;;1.93;;
16442;SDS011;8331;51.654;14.376;2023-06-05T11:58:24;2.27;;;2.17;;
16442;SDS011;8331;51.654;14.376;2023-06-05T12:00:51;2.40;;;2.20;;
16442;SDS011;8331;51.654;14.376;2023-06-05T12:03:19;2.70;;;2.10;;
16442;SDS011;8331;51.654;14.376;2023-06-05T12:05:47;3.67;;;2.40;;
16442;SDS011;8331;51.654;14.376;2023-06-05T12:10:52;3.07;;;2.10;;
16442;SDS011;8331;51.654;14.376;2023-06-05T12:13:19;3.27;;;2.20;;
16442;SDS011;8331;51.654;14.376;2023-06-05T12:15:58;2.30;;;2.20;;
16442;SDS011;8331;51.654;14.376;2023-06-05T12:18:32;3.00;;;2.43;;
16442;SDS011;8331;51.654;14.376;2023-06-05T12:21:00;4.50;;;2.30;;
16442;SDS011;8331;51.654;14.376;2023-06-05T12:23:30;3.57;;;2.07;;
16442;SDS011;8331;51.654;14.376;2023-06-05T12:28:27;3.00;;;2.80;;
16442;SDS011;8331;51.654;14.376;2023-06-05T12:30:54;4.25;;;2.53;;
16442;SDS011;8331;51.654;14.376;2023-06-05T12:33:21;2.53;;;2.30;;
16442;SDS011;8331;51.654;14.376;2023-06-05T12:36:06;2.90;;;2.60;;
16442;SDS011;8331;51.654;14.376;2023-06-05T12:38:36;2.25;;;2.10;;
16442;SDS011;8331;51.654;14.376;2023-06-05T12:41:04;2.50;;;2.30;;
16442;SDS011;8331;51.654;14.376;2023-06-05T12:43:33;2.42;;;2.20;;
16442;SDS011;8331;51.654;14.376;2023-06-05T12:45:59;4.13;;;2.30;;
16442;SDS011;8331;51.654;14.376;2023-06-05T12:48:27;2.80;;;2.60;;
16442;SDS011;8331;51.654;14.376;2023-06-05T12:50:54;4.60;;;2.45;;
16442;SDS011;8331;51.654;14.376;2023-06-05T12:53:22;5.88;;;2.47;;
16442;SDS011;8331;51.654;14.376;2023-06-05T12:55:48;2.80;;;2.40;;
16442;SDS011;8331;51.654;14.376;2023-06-05T12:58:15;4.25;;;2.50;;
16442;SDS011;8331;51.654;14.376;2023-06-05T13:00:42;2.10;;;2.00;;
16442;SDS011;8331;51.654;14.376;2023-06-05T13:03:10;2.75;;;2.55;;
16442;SDS011;8331;51.654;14.376;2023-06-05T13:05:39;2.38;;;2.28;;
16442;SDS011;8331;51.654;14.376;2023-06-05T13:08:05;2.97;;;2.45;;
16442;SDS011;8331;51.654;14.376;2023-06-05T13:10:32;2.50;;;2.40;;
16442;SDS011;8331;51.654;14.376;2023-06-05T13:12:59;3.90;;;2.40;;
16442;SDS011;8331;51.654;14.376;2023-06-05T13:15:26;2.65;;;2.30;;
16442;SDS011;8331;51.654;14.376;2023-06-05T13:17:52;3.72;;;2.65;;
16442;SDS011;8331;51.654;14.376;2023-06-05T13:20:19;3.17;;;2.22;;
16442;SDS011;8331;51.654;14.376;2023-06-05T13:22:46;4.43;;;2.38;;
16442;SDS011;8331;51.654;14.376;2023-06-05T13:25:13;2.83;;;2.63;;
16442;SDS011;8331;51.654;14.376;2023-06-05T13:27:39;2.55;;;2.35;;
16442;SDS011;8331;51.654;14.376;2023-06-05T13:30:06;2.40;;;2.15;;
16442;SDS011;8331;51.654;14.376;2023-06-05T13:32:34;2.88;;;2.08;;
16442;SDS011;8331;51.654;14.376;2023-06-05T13:35:01;7.18;;;2.50;;
16442;SDS011;8331;51.654;14.376;2023-06-05T13:37:27;4.50;;;2.50;;
16442;SDS011;8331;51.654;14.376;2023-06-05T13:39:54;3.00;;;2.58;;
16442;SDS011;8331;51.654;14.376;2023-06-05T13:42:21;3.22;;;2.63;;
16442;SDS011;8331;51.654;14.376;2023-06-05T13:44:47;2.60;;;2.40;;
16442;SDS011;8331;51.654;14.376;2023-06-05T13:47:14;2.80;;;2.20;;
16442;SDS011;8331;51.654;14.376;2023-06-05T13:49:41;3.00;;;2.35;;
16442;SDS011;8331;51.654;14.376;2023-06-05T13:52:08;3.45;;;2.33;;
16442;SDS011;8331;51.654;14.376;2023-06-05T13:54:34;11.63;;;2.92;;
16442;SDS011;8331;51.654;14.376;2023-06-05T13:57:01;2.70;;;2.35;;
16442;SDS011;8331;51.654;14.376;2023-06-05T13:59:29;3.22;;;2.83;;
16442;SDS011;8331;51.654;14.376;2023-06-05T14:01:56;5.13;;;2.33;;
16442;SDS011;8331;51.654;14.376;2023-06-05T14:04:22;2.70;;;2.50;;
16442;SDS011;8331;51.654;14.376;2023-06-05T14:06:49;3.35;;;2.60;;
16442;SDS011;8331;51.654;14.376;2023-06-05T14:09:16;3.08;;;2.40;;
16442;SDS011;8331;51.654;14.376;2023-06-05T14:11:44;4.13;;;2.50;;
16442;SDS011;8331;51.654;14.376;2023-06-05T14:14:11;2.95;;;2.63;;
16442;SDS011;8331;51.654;14.376;2023-06-05T14:16:38;3.80;;;2.35;;
16442;SDS011;8331;51.654;14.376;2023-06-05T14:19:05;2.75;;;2.42;;
16442;SDS011;8331;51.654;14.376;2023-06-05T14:21:31;2.97;;;2.63;;
16442;SDS011;8331;51.654;14.376;2023-06-05T14:23:58;2.72;;;2.45;;
16442;SDS011;8331;51.654;14.376;2023-06-05T14:26:25;3.80;;;2.30;;
16442;SDS011;8331;51.654;14.376;2023-06-05T14:28:52;2.92;;;2.53;;
16442;SDS011;8331;51.654;14.376;2023-06-05T14:31:18;6.00;;;2.58;;
16442;SDS011;8331;51.654;14.376;2023-06-05T14:33:46;2.80;;;2.35;;
16442;SDS011;8331;51.654;14.376;2023-06-05T14:36:12;34.10;;;4.35;;
16442;SDS011;8331;51.654;14.376;2023-06-05T14:38:41;5.65;;;2.50;;
16442;SDS011;8331;51.654;14.376;2023-06-05T14:41:07;2.72;;;2.50;;
16442;SDS011;8331;51.654;14.376;2023-06-05T14:43:34;4.13;;;2.47;;
16442;SDS011;8331;51.654;14.376;2023-06-05T14:46:01;4.40;;;2.30;;
16442;SDS011;8331;51.654;14.376;2023-06-05T14:48:28;8.40;;;2.63;;
16442;SDS011;8331;51.654;14.376;2023-06-05T14:50:55;4.68;;;2.47;;
16442;SDS011;8331;51.654;14.376;2023-06-05T14:53:22;2.83;;;2.50;;
16442;SDS011;8331;51.654;14.376;2023-06-05T14:55:49;8.90;;;2.88;;
16442;SDS011;8331;51.654;14.376;2023-06-05T14:58:15;3.38;;;2.55;;
16442;SDS011;8331;51.654;14.376;2023-06-05T15:00:42;4.07;;;2.38;;
16442;SDS011;8331;51.654;14.376;2023-06-05T15:03:09;2.92;;;2.72;;
16442;SDS011;8331;51.654;14.376;2023-06-05T15:05:36;2.63;;;2.42;;
16442;SDS011;8331;51.654;14.376;2023-06-05T15:08:02;3.40;;;2.53;;
16442;SDS011;8331;51.654;14.376;2023-06-05T15:10:29;2.85;;;2.60;;
16442;SDS011;8331;51.654;14.376;2023-06-05T15:12:56;2.70;;;2.50;;
16442;SDS011;8331;51.654;14.376;2023-06-05T15:15:24;5.53;;;2.83;;
16442;SDS011;8331;51.654;14.376;2023-06-05T15:17:50;5.10;;;2.58;;
16442;SDS011;8331;51.654;14.376;2023-06-05T15:20:21;3.55;;;2.40;;
16442;SDS011;8331;51.654;14.376;2023-06-05T15:22:51;2.60;;;2.40;;
16442;SDS011;8331;51.654;14.376;2023-06-05T15:25:38;4.55;;;2.50;;
16442;SDS011;8331;51.654;14.376;2023-06-05T15:28:05;2.37;;;2.20;;
16442;SDS011;8331;51.654;14.376;2023-06-05T15:30:31;4.03;;;2.63;;
16442;SDS011;8331;51.654;14.376;2023-06-05T15:32:58;5.07;;;2.47;;
16442;SDS011;8331;51.654;14.376;2023-06-05T15:35:25;2.30;;;2.10;;
16442;SDS011;8331;51.654;14.376;2023-06-05T15:37:53;5.17;;;2.43;;
16442;SDS011;8331;51.654;14.376;2023-06-05T15:40:20;2.40;;;2.20;;
16442;SDS011;8331;51.654;14.376;2023-06-05T15:43:02;2.83;;;2.00;;
16442;SDS011;8331;51.654;14.376;2023-06-05T15:45:30;4.97;;;2.20;;